Time;durP1;ratioP1;P1;durP2;ratioP2;P2;SDS_P1;SDS_P2;PMS_P1;PMS_P2;Temp;Humidity;BMP_temperature;BMP_pressure;BME280_temperature;BME280_humidity;BME280_pressure;Samples;Min_cycle;Max_cycle;Signal;HPM_P1;HPM_P2
2023/07/17 00:01:27;;;;;;;3.20;1.35;;;;;;;18.28;100.00;98426.09;15266479;19;20012;-59
2023/07/17 00:06:54;;;;;;;4.63;1.60;;;;;;;18.26;100.00;98424.63;15266693;19;20018;-59
2023/07/17 00:12:19;;;;;;;2.72;1.48;;;;;;;18.23;100.00;98419.59;15268596;19;20029;-59
2023/07/17 00:17:45;;;;;;;2.00;1.30;;;;;;;18.21;100.00;98416.22;15266340;19;20014;-57
2023/07/17 00:23:12;;;;;;;2.08;1.40;;;;;;;18.18;100.00;98426.50;15269082;19;20018;-60
2023/07/17 00:28:37;;;;;;;1.55;1.30;;;;;;;18.15;100.00;98424.22;15271062;19;20018;-60
2023/07/17 00:34:01;;;;;;;2.05;1.60;;;;;;;18.15;100.00;98426.94;15272078;19;20791;-60
2023/07/17 00:39:36;;;;;;;2.17;1.50;;;;;;;18.16;100.00;98427.78;15277419;19;20027;-60
2023/07/17 00:45:00;;;;;;;3.47;1.50;;;;;;;18.16;100.00;98434.06;15280154;19;20078;-59
2023/07/17 00:50:25;;;;;;;2.30;1.40;;;;;;;18.19;100.00;98443.72;15275288;19;20033;-56
2023/07/17 00:55:53;;;;;;;2.15;1.30;;;;;;;18.18;100.00;98440.13;15279938;19;20341;-60
2023/07/17 01:01:19;;;;;;;3.50;1.58;;;;;;;18.17;100.00;98445.81;15280895;19;20476;-59
2023/07/17 01:06:43;;;;;;;2.72;1.55;;;;;;;18.15;100.00;98456.06;15277772;19;20021;-59
2023/07/17 01:12:11;;;;;;;2.92;1.63;;;;;;;18.14;100.00;98446.22;15281929;19;20025;-58
2023/07/17 01:17:36;;;;;;;2.50;1.52;;;;;;;18.13;100.00;98444.53;15277762;19;20027;-58
2023/07/17 01:23:09;;;;;;;2.60;1.35;;;;;;;18.10;100.00;98453.97;15280677;19;20002;-54
2023/07/17 01:28:33;;;;;;;2.75;1.60;;;;;;;18.10;100.00;98437.63;15278530;19;20025;-60
2023/07/17 01:33:58;;;;;;;1.80;1.30;;;;;;;18.09;100.00;98435.13;15277883;19;20046;-58
2023/07/17 01:39:25;;;;;;;2.80;1.50;;;;;;;18.08;100.00;98450.63;15271622;19;20104;-59
2023/07/17 01:44:50;;;;;;;1.90;1.42;;;;;;;18.06;100.00;98458.16;15277310;19;20082;-59
2023/07/17 01:50:14;;;;;;;2.85;1.45;;;;;;;18.02;100.00;98454.19;15274526;19;20090;-57
2023/07/17 01:55:43;;;;;;;2.05;1.42;;;;;;;17.96;100.00;98444.94;15275415;19;20373;-57
2023/07/17 02:01:07;;;;;;;2.45;1.50;;;;;;;17.93;100.00;98444.53;15275001;19;20512;-56
2023/07/17 02:06:32;;;;;;;2.67;1.60;;;;;;;17.90;100.00;98451.22;15277538;19;20026;-56
2023/07/17 02:12:01;;;;;;;3.40;1.50;;;;;;;17.86;100.00;98456.25;15271074;19;20011;-58
2023/07/17 02:17:26;;;;;;;3.60;1.50;;;;;;;17.84;100.00;98450.16;15274960;19;20025;-56
2023/07/17 02:22:52;;;;;;;1.63;1.25;;;;;;;17.83;100.00;98461.28;15271745;19;20468;-58
2023/07/17 02:28:21;;;;;;;1.80;1.50;;;;;;;17.80;100.00;98461.69;15274014;19;20086;-58
2023/07/17 02:33:45;;;;;;;2.70;1.60;;;;;;;17.76;100.00;98464.00;15273035;19;20018;-57
2023/07/17 02:39:10;;;;;;;2.67;1.42;;;;;;;17.73;100.00;98464.38;15268881;19;20015;-52
2023/07/17 02:44:37;;;;;;;1.77;1.48;;;;;;;17.67;100.00;98474.22;15271084;19;20085;-58
2023/07/17 02:50:02;;;;;;;2.50;1.30;;;;;;;17.64;100.00;98473.81;15268245;19;20873;-57
2023/07/17 02:55:27;;;;;;;3.17;1.60;;;;;;;17.58;100.00;98474.66;15273378;19;20017;-57
2023/07/17 03:00:56;;;;;;;2.35;1.50;;;;;;;17.51;100.00;98474.63;15272658;19;20078;-58
2023/07/17 03:06:22;;;;;;;3.08;1.45;;;;;;;17.39;100.00;98471.63;15273996;19;20014;-55
2023/07/17 03:11:47;;;;;;;2.45;1.60;;;;;;;17.29;100.00;98471.19;15272806;19;20014;-55
2023/07/17 03:17:07;;;;;;;3.97;1.45;;;;;;;17.19;100.00;98472.41;15262300;19;20010;-57
2023/07/17 03:22:32;;;;;;;2.15;1.50;;;;;;;17.10;100.00;98479.09;15271543;19;20035;-57
2023/07/17 03:27:57;;;;;;;2.65;1.65;;;;;;;17.01;100.00;98474.81;15272210;19;20468;-54
2023/07/17 03:33:24;;;;;;;3.03;1.60;;;;;;;16.92;100.00;98476.88;15273623;19;20464;-57
2023/07/17 03:38:50;;;;;;;2.35;1.60;;;;;;;16.86;100.00;98478.50;15266526;19;20019;-58
2023/07/17 03:44:15;;;;;;;2.28;1.63;;;;;;;16.82;100.00;98477.22;15271942;19;20021;-56
2023/07/17 03:49:44;;;;;;;2.67;1.58;;;;;;;16.78;100.00;98478.66;15267896;19;20018;-56
2023/07/17 03:55:10;;;;;;;3.50;1.60;;;;;;;16.73;100.00;98483.88;15270311;19;20106;-55
2023/07/17 04:00:36;;;;;;;2.60;1.63;;;;;;;16.69;100.00;98488.00;15266989;19;20042;-55
2023/07/17 04:06:04;;;;;;;4.05;1.90;;;;;;;16.64;100.00;98481.28;15285135;19;20021;-53
2023/07/17 04:11:23;;;;;;;3.08;1.73;;;;;;;16.61;100.00;98489.00;15286910;19;20653;-53
2023/07/17 04:16:47;;;;;;;4.57;1.75;;;;;;;16.60;100.00;98490.03;15285037;19;20028;-55
2023/07/17 04:22:14;;;;;;;2.17;1.52;;;;;;;16.60;100.00;98490.03;15283517;19;20018;-57
2023/07/17 04:27:40;;;;;;;4.07;1.88;;;;;;;16.59;100.00;98488.34;15285841;19;20011;-55
2023/07/17 04:33:07;;;;;;;2.78;1.50;;;;;;;16.60;100.00;98490.91;15284902;19;20015;-52
2023/07/17 04:38:35;;;;;;;3.15;1.65;;;;;;;16.63;100.00;98495.09;15282455;19;20471;-55
2023/07/17 04:43:59;;;;;;;2.63;1.58;;;;;;;16.68;100.00;98508.94;15282936;19;20042;-51
2023/07/17 04:49:25;;;;;;;2.67;1.70;;;;;;;16.72;100.00;98510.22;15283319;19;20242;-57
2023/07/17 04:54:52;;;;;;;2.15;1.67;;;;;;;16.81;100.00;98521.78;15280880;19;20441;-52
2023/07/17 05:00:19;;;;;;;2.40;1.60;;;;;;;16.87;100.00;98523.72;15280119;19;20021;-54
2023/07/17 05:05:50;;;;;;;3.15;1.90;;;;;;;16.96;100.00;98527.13;15283514;19;20027;-55
2023/07/17 05:11:17;;;;;;;2.53;1.60;;;;;;;17.03;100.00;98528.03;15285292;19;20034;-54
2023/07/17 05:16:44;;;;;;;3.25;1.80;;;;;;;17.13;100.00;98538.53;15278119;19;20042;-54
2023/07/17 05:22:09;;;;;;;3.33;1.90;;;;;;;17.25;100.00;98533.38;15281747;19;20017;-52
2023/07/17 05:27:37;;;;;;;1.90;1.60;;;;;;;17.38;100.00;98533.44;15280460;19;20011;-56
2023/07/17 05:33:02;;;;;;;2.90;1.88;;;;;;;17.53;100.00;98538.75;15281189;19;20018;-53
2023/07/17 05:38:27;;;;;;;3.10;1.88;;;;;;;17.67;100.00;98533.34;15278112;19;20024;-59
2023/07/17 05:43:56;;;;;;;2.90;1.73;;;;;;;17.82;100.00;98539.44;15278558;19;20042;-52
2023/07/17 05:49:21;;;;;;;2.83;1.80;;;;;;;18.02;100.00;98544.16;15280340;19;20044;-55
2023/07/17 05:54:46;;;;;;;4.50;1.90;;;;;;;18.16;100.00;98545.88;15278208;19;20035;-55
2023/07/17 06:00:15;;;;;;;3.00;1.60;;;;;;;18.32;100.00;98547.34;15276793;19;20018;-56
2023/07/17 06:05:39;;;;;;;2.45;1.60;;;;;;;18.51;100.00;98554.91;15277017;19;20047;-54
2023/07/17 06:11:04;;;;;;;4.10;1.80;;;;;;;18.68;100.00;98553.44;15280479;19;20038;-52
2023/07/17 06:16:32;;;;;;;2.30;1.73;;;;;;;18.91;100.00;98546.69;15279824;19;20626;-54
2023/07/17 06:21:57;;;;;;;3.95;1.95;;;;;;;19.13;100.00;98550.03;15280442;19;20081;-54
2023/07/17 06:27:21;;;;;;;3.28;2.00;;;;;;;19.32;100.00;98550.19;15274561;19;20366;-54
2023/07/17 06:32:49;;;;;;;2.95;1.90;;;;;;;19.55;100.00;98549.69;15278266;19;20439;-56
2023/07/17 06:38:13;;;;;;;3.50;1.63;;;;;;;19.74;100.00;98553.41;15277524;19;20089;-51
2023/07/17 06:43:44;;;;;;;3.30;1.75;;;;;;;19.91;100.00;98558.38;15265014;19;20022;-51
2023/07/17 06:49:11;;;;;;;3.67;1.90;;;;;;;20.10;100.00;98556.59;15275876;19;20073;-51
2023/07/17 06:54:39;;;;;;;3.42;1.92;;;;;;;20.26;100.00;98555.22;15274643;19;20073;-56
2023/07/17 07:00:21;;;;;;;5.50;2.13;;;;;;;20.46;100.00;98561.38;15271566;19;20025;-53
2023/07/17 07:05:48;;;;;;;5.20;2.00;;;;;;;20.67;100.00;98553.00;15273944;19;20020;-53
2023/07/17 07:11:14;;;;;;;3.78;2.00;;;;;;;20.91;100.00;98559.56;15276011;19;20014;-54
2023/07/17 07:16:38;;;;;;;3.92;1.80;;;;;;;21.25;100.00;98552.66;15275926;19;20039;-51
2023/07/17 07:22:06;;;;;;;3.65;1.80;;;;;;;21.52;94.37;98544.16;15273542;19;20637;-54
2023/07/17 07:27:31;;;;;;;3.40;1.77;;;;;;;21.74;97.46;98546.44;15277262;19;20039;-56
2023/07/17 07:32:56;;;;;;;4.00;1.90;;;;;;;21.96;86.49;98545.91;15268040;19;20010;-56
2023/07/17 07:38:24;;;;;;;4.15;1.85;;;;;;;22.18;89.48;98557.22;15277113;19;20014;-57
2023/07/17 07:43:52;;;;;;;3.10;1.80;;;;;;;22.49;75.06;98555.28;15288330;19;20133;-55
2023/07/17 07:49:16;;;;;;;2.95;1.70;;;;;;;22.71;67.76;98546.47;15295000;19;20024;-56
2023/07/17 07:54:43;;;;;;;3.15;1.70;;;;;;;22.83;62.70;98560.22;15288018;19;20031;-53
2023/07/17 08:00:18;;;;;;;4.55;1.67;;;;;;;23.02;62.84;98558.22;15283356;19;20031;-54
2023/07/17 08:05:42;;;;;;;3.72;1.60;;;;;;;23.16;62.48;98558.78;15278774;19;20010;-51
2023/07/17 08:11:10;;;;;;;4.50;1.60;;;;;;;23.31;58.73;98550.94;15288096;19;20013;-51
2023/07/17 08:16:35;;;;;;;2.72;1.45;;;;;;;23.02;57.19;98567.28;15281754;19;20019;-52
2023/07/17 08:22:00;;;;;;;3.67;1.60;;;;;;;23.06;59.52;98549.25;15282714;19;20430;-55
2023/07/17 08:27:27;;;;;;;2.72;1.50;;;;;;;22.92;57.98;98547.81;15286107;19;20021;-55
2023/07/17 08:32:53;;;;;;;3.95;1.55;;;;;;;23.16;57.40;98564.28;15282454;19;20816;-57
2023/07/17 08:38:17;;;;;;;4.25;1.60;;;;;;;23.26;56.23;98575.53;15280622;19;20014;-56
2023/07/17 08:43:45;;;;;;;4.13;1.55;;;;;;;23.36;54.92;98552.94;15281697;19;20023;-54
2023/07/17 08:49:11;;;;;;;4.22;1.75;;;;;;;23.24;53.32;98558.44;15284223;19;20086;-56
2023/07/17 08:54:37;;;;;;;3.10;1.33;;;;;;;23.50;54.42;98548.00;15279707;19;20475;-55
2023/07/17 09:00:06;;;;;;;1.52;1.20;;;;;;;23.85;48.71;98560.81;15279441;19;20019;-53
2023/07/17 09:05:32;;;;;;;1.73;1.27;;;;;;;23.84;48.50;98560.00;15278834;19;20021;-54
2023/07/17 09:11:04;;;;;;;2.45;1.20;;;;;;;24.03;48.04;98564.50;15280839;19;20518;-56
2023/07/17 09:16:33;;;;;;;1.70;1.20;;;;;;;24.04;46.41;98557.91;15283361;19;20375;-54
2023/07/17 09:22:01;;;;;;;3.53;1.40;;;;;;;23.99;47.14;98583.44;15282867;19;20019;-54
2023/07/17 09:27:25;;;;;;;3.13;1.50;;;;;;;23.81;48.62;98556.91;15281840;19;20027;-55
2023/07/17 09:32:53;;;;;;;4.15;1.38;;;;;;;23.65;48.44;98562.09;14768421;19;10000723;-55
2023/07/17 09:38:19;;;;;;;3.42;1.50;;;;;;;23.81;48.55;98556.91;15280156;19;20010;-55
2023/07/17 09:43:44;;;;;;;1.92;1.20;;;;;;;24.08;46.26;98551.69;15271781;19;20021;-51
2023/07/17 09:49:12;;;;;;;3.10;1.38;;;;;;;24.07;45.62;98543.66;15281141;19;20029;-51
2023/07/17 09:54:39;;;;;;;3.63;1.20;;;;;;;24.16;45.80;98539.44;15276555;19;20104;-54
2023/07/17 10:00:11;;;;;;;2.53;1.10;;;;;;;24.43;45.70;98530.53;15274867;19;20579;-54
2023/07/17 10:05:38;;;;;;;4.32;1.50;;;;;;;24.91;44.52;98533.81;15274972;19;20510;-57
2023/07/17 10:11:03;;;;;;;4.80;0.95;;;;;;;25.14;45.94;98527.22;15273982;19;20910;-54
2023/07/17 10:16:28;;;;;;;2.40;1.08;;;;;;;25.43;44.13;98529.88;15274208;19;20771;-51
2023/07/17 10:22:07;;;;;;;3.25;1.20;;;;;;;25.72;42.28;98529.66;15276596;19;20374;-51
2023/07/17 10:27:42;;;;;;;2.25;0.98;;;;;;;25.77;36.62;98520.59;15278182;19;20010;-55
2023/07/17 10:33:22;;;;;;;1.83;0.90;;;;;;;25.72;37.60;98526.06;15272806;19;20621;-55
2023/07/17 10:38:54;;;;;;;3.38;1.10;;;;;;;25.45;38.54;98521.31;15276285;19;20018;-50
2023/07/17 10:44:28;;;;;;;1.60;1.00;;;;;;;25.62;39.40;98521.25;15272839;19;20096;-51
2023/07/17 10:49:54;;;;;;;1.77;0.95;;;;;;;25.38;39.18;98515.97;15276251;19;20082;-54
2023/07/17 10:55:21;;;;;;;2.78;1.02;;;;;;;25.31;40.84;98504.31;15273849;19;20343;-51
2023/07/17 11:00:47;;;;;;;1.98;1.05;;;;;;;25.22;41.51;98506.66;15272308;19;20021;-54
2023/07/17 11:06:12;;;;;;;1.35;0.98;;;;;;;25.38;40.45;98493.91;15274952;19;20471;-57
2023/07/17 11:11:40;;;;;;;1.55;1.00;;;;;;;25.82;40.08;98510.44;15272156;19;20018;-56
2023/07/17 11:17:04;;;;;;;2.55;1.20;;;;;;;25.82;42.15;98512.38;15269162;19;20014;-57
2023/07/17 11:22:32;;;;;;;3.35;1.05;;;;;;;26.25;39.27;98501.53;15273286;19;20029;-57
2023/07/17 11:28:01;;;;;;;2.17;0.85;;;;;;;26.38;40.06;98490.03;15274712;19;20066;-52
2023/07/17 11:33:27;;;;;;;2.22;1.20;;;;;;;26.50;39.30;98492.59;15270721;19;20622;-55
2023/07/17 11:38:51;;;;;;;1.95;1.10;;;;;;;26.77;41.70;98489.75;15272824;19;20143;-54
2023/07/17 11:44:25;;;;;;;3.40;1.40;;;;;;;26.51;40.28;98485.97;15269480;19;20041;-53
2023/07/17 11:49:50;;;;;;;2.45;1.13;;;;;;;26.94;40.94;98493.47;15265003;19;20021;-51
2023/07/17 11:55:15;;;;;;;2.10;1.17;;;;;;;26.99;39.92;98477.75;15267918;19;20011;-54
2023/07/17 12:00:42;;;;;;;3.42;1.10;;;;;;;27.11;41.52;98485.03;15269607;19;20029;-56
2023/07/17 12:06:08;;;;;;;3.92;1.30;;;;;;;26.74;42.71;98476.50;15273573;19;20396;-56
2023/07/17 12:11:32;;;;;;;2.95;1.40;;;;;;;26.12;43.14;98487.03;15272524;19;20024;-54
2023/07/17 12:16:59;;;;;;;2.75;1.20;;;;;;;25.84;43.97;98477.91;15271361;19;20071;-54
2023/07/17 12:22:24;;;;;;;2.65;1.27;;;;;;;25.65;44.71;98487.63;15265931;19;20473;-52
2023/07/17 12:27:50;;;;;;;1.80;1.08;;;;;;;25.30;45.51;98480.56;15286911;19;20054;-54
2023/07/17 12:33:17;;;;;;;3.95;1.40;;;;;;;25.32;45.17;98472.88;15282651;19;20013;-53
2023/07/17 12:38:35;;;;;;;2.08;1.20;;;;;;;25.30;45.38;98480.56;15284683;19;20014;-55
2023/07/17 12:44:00;;;;;;;1.80;1.20;;;;;;;25.27;45.05;98475.56;15274660;19;20021;-59
2023/07/17 12:49:27;;;;;;;2.20;1.20;;;;;;;25.49;45.33;98467.31;15284382;19;20014;-52
2023/07/17 12:54:58;;;;;;;1.55;1.00;;;;;;;26.02;44.81;98459.31;15278664;19;20018;-57
2023/07/17 13:00:24;;;;;;;2.60;1.00;;;;;;;26.30;44.65;98452.69;15287115;19;20089;-52
2023/07/17 13:05:51;;;;;;;2.15;1.17;;;;;;;26.54;43.37;98449.53;15283321;19;20018;-52
2023/07/17 13:11:16;;;;;;;2.22;1.20;;;;;;;26.59;42.39;98454.28;15287782;19;20035;-53
2023/07/17 13:16:42;;;;;;;2.17;1.10;;;;;;;26.48;43.44;98433.19;15288339;19;20037;-55
2023/07/17 13:22:09;;;;;;;3.63;1.20;;;;;;;26.42;42.16;98430.38;15287587;19;20010;-56
2023/07/17 13:27:34;;;;;;;2.28;1.17;;;;;;;26.06;42.20;98421.78;15284442;19;20018;-53
2023/07/17 13:32:59;;;;;;;4.70;1.40;;;;;;;25.84;42.71;98428.22;15283726;19;20026;-54
2023/07/17 13:38:27;;;;;;;5.07;1.15;;;;;;;25.86;43.69;98427.97;15284244;19;20010;-56
2023/07/17 13:43:58;;;;;;;2.05;1.20;;;;;;;25.66;43.18;98442.41;15277901;19;20081;-54
2023/07/17 13:49:17;;;;;;;5.05;1.30;;;;;;;25.60;44.07;98429.63;15285980;19;20479;-53
2023/07/17 13:54:44;;;;;;;2.78;1.10;;;;;;;25.60;44.48;98427.72;15282033;19;20018;-51
2023/07/17 14:00:10;;;;;;;2.22;1.25;;;;;;;25.81;44.23;98425.97;15278196;19;20028;-53
2023/07/17 14:05:35;;;;;;;2.88;1.30;;;;;;;25.82;43.10;98430.41;15278334;19;20467;-56
2023/07/17 14:11:02;;;;;;;3.40;1.10;;;;;;;25.97;43.97;98421.47;15284795;19;20010;-57
2023/07/17 14:16:27;;;;;;;2.05;1.08;;;;;;;26.63;43.07;98419.50;15279918;19;20010;-55
2023/07/17 14:21:51;;;;;;;1.60;0.90;;;;;;;26.97;42.55;98421.06;15272705;19;20332;-56
2023/07/17 14:27:18;;;;;;;4.07;1.20;;;;;;;26.75;41.88;98400.75;15278900;19;20021;-51
2023/07/17 14:32:43;;;;;;;3.42;1.10;;;;;;;26.41;42.02;98401.09;15274161;19;20014;-54
2023/07/17 14:38:08;;;;;;;2.85;1.25;;;;;;;26.70;40.50;98397.97;15283292;19;20021;-52
2023/07/17 14:43:35;;;;;;;2.70;1.10;;;;;;;26.85;40.71;98397.25;15276250;19;20022;-54
2023/07/17 14:49:00;;;;;;;2.05;1.30;;;;;;;26.70;40.72;98381.38;15280731;19;20010;-54
2023/07/17 14:54:25;;;;;;;1.85;1.10;;;;;;;26.57;41.89;98392.91;15276175;19;20018;-55
2023/07/17 14:59:53;;;;;;;2.33;1.13;;;;;;;26.85;39.87;98390.91;15275635;19;20010;-62
2023/07/17 15:05:17;;;;;;;2.38;1.20;;;;;;;27.14;41.17;98376.63;15274403;19;20011;-58
2023/07/17 15:10:42;;;;;;;2.45;1.42;;;;;;;26.46;41.54;98378.22;15278670;19;20015;-58
2023/07/17 15:16:09;;;;;;;3.03;1.30;;;;;;;26.33;42.51;98382.28;15276051;19;20020;-67
2023/07/17 15:21:34;;;;;;;2.75;1.30;;;;;;;26.36;41.98;98376.22;15279218;19;20050;-61
2023/07/17 15:26:58;;;;;;;2.25;1.10;;;;;;;26.74;42.05;98371.47;15280139;19;20013;-60
2023/07/17 15:32:25;;;;;;;2.67;1.27;;;;;;;26.89;41.00;98369.88;15276340;19;20454;-53
2023/07/17 15:37:50;;;;;;;5.85;1.30;;;;;;;26.72;41.54;98368.13;15275879;19;20340;-62
2023/07/17 15:43:15;;;;;;;1.88;1.20;;;;;;;26.30;42.07;98380.88;15274664;19;20899;-60
2023/07/17 15:48:42;;;;;;;4.78;1.20;;;;;;;26.40;42.31;98376.50;15279850;19;20011;-62
2023/07/17 15:54:07;;;;;;;5.03;1.20;;;;;;;26.62;42.50;98373.63;15275565;19;20512;-63
2023/07/17 15:59:31;;;;;;;4.45;1.23;;;;;;;26.44;42.98;98377.66;15282649;19;20010;-61
2023/07/17 16:04:58;;;;;;;5.20;1.25;;;;;;;25.95;43.50;98395.19;15287815;19;20010;-60
2023/07/17 16:10:23;;;;;;;4.50;1.25;;;;;;;25.72;44.58;98394.44;15291127;19;20038;-60
2023/07/17 16:15:48;;;;;;;2.13;1.50;;;;;;;25.68;44.10;98387.81;15285252;19;20506;-62
2023/07/17 16:21:15;;;;;;;3.40;1.48;;;;;;;25.54;44.46;98399.25;15287905;19;20011;-65
2023/07/17 16:26:41;;;;;;;3.67;1.48;;;;;;;25.45;44.10;98391.69;15290896;19;20007;-64
2023/07/17 16:32:05;;;;;;;3.42;1.30;;;;;;;25.57;44.56;98389.63;15289790;19;20011;-66
2023/07/17 16:37:33;;;;;;;2.53;1.30;;;;;;;25.89;43.32;98401.78;15289128;19;20082;-72
2023/07/17 16:42:58;;;;;;;2.55;1.30;;;;;;;26.10;43.53;98406.41;15280379;19;20022;-66
2023/07/17 16:48:23;;;;;;;3.05;1.38;;;;;;;26.01;43.71;98410.72;15288074;19;20024;-67
2023/07/17 16:53:50;;;;;;;2.20;1.40;;;;;;;25.67;43.60;98408.22;15284506;19;20021;-65
2023/07/17 16:59:15;;;;;;;2.67;1.25;;;;;;;25.90;43.20;98411.72;15286879;19;20011;-65
2023/07/17 17:04:40;;;;;;;3.97;1.17;;;;;;;26.06;43.50;98421.78;15284197;19;20015;-64
2023/07/17 17:10:08;;;;;;;6.00;1.25;;;;;;;25.87;42.44;98423.28;15284577;19;20007;-62
2023/07/17 17:15:33;;;;;;;2.20;1.30;;;;;;;25.93;43.28;98416.72;15277650;19;20014;-63
2023/07/17 17:21:01;;;;;;;1.70;1.20;;;;;;;25.51;43.76;98421.81;15282721;19;20587;-64
2023/07/17 17:26:28;;;;;;;4.05;1.20;;;;;;;25.15;43.70;98428.84;15283977;19;20010;-62
2023/07/17 17:31:53;;;;;;;2.67;1.05;;;;;;;25.02;43.93;98436.41;15282227;19;20035;-62
2023/07/17 17:37:17;;;;;;;2.17;1.20;;;;;;;25.21;44.22;98431.41;15282029;19;20028;-62
2023/07/17 17:42:45;;;;;;;1.63;1.20;;;;;;;25.44;43.22;98431.41;15279473;19;20026;-65
2023/07/17 17:48:10;;;;;;;2.15;1.00;;;;;;;25.44;43.04;98435.00;15284225;19;20021;-64
2023/07/17 17:53:35;;;;;;;2.80;1.20;;;;;;;25.33;43.44;98436.75;15282001;19;20014;-60
2023/07/17 17:59:02;;;;;;;4.97;1.20;;;;;;;25.28;44.11;98446.91;15285987;19;20355;-65
2023/07/17 18:04:28;;;;;;;2.40;1.15;;;;;;;25.12;44.82;98462.41;15277508;19;20355;-64
2023/07/17 18:09:59;;;;;;;2.05;0.90;;;;;;;24.71;44.03;98460.75;15282417;19;20612;-64
2023/07/17 18:15:27;;;;;;;1.80;1.05;;;;;;;24.27;44.29;98468.84;15278681;19;20344;-65
2023/07/17 18:20:51;;;;;;;4.13;1.17;;;;;;;24.01;45.22;98476.66;15277493;19;20038;-66
2023/07/17 18:26:16;;;;;;;3.85;1.05;;;;;;;23.81;45.30;98488.94;15281881;19;20014;-66
2023/07/17 18:31:43;;;;;;;1.20;0.90;;;;;;;23.53;46.03;98487.84;15280802;19;20038;-62
2023/07/17 18:37:08;;;;;;;2.70;0.90;;;;;;;23.27;46.59;98510.44;15282344;19;20033;-65
2023/07/17 18:42:32;;;;;;;1.17;1.00;;;;;;;23.13;46.96;98507.06;15277428;19;20781;-67
2023/07/17 18:48:00;;;;;;;3.13;0.90;;;;;;;22.98;46.95;98516.66;15275536;19;20024;-66
2023/07/17 18:53:25;;;;;;;2.88;1.00;;;;;;;22.89;46.89;98529.91;15275640;19;20024;-66
2023/07/17 18:58:51;;;;;;;8.30;1.20;;;;;;;22.81;46.80;98533.03;15279082;19;20010;-67
2023/07/17 19:04:20;;;;;;;1.38;0.95;;;;;;;22.69;47.16;98537.66;15276310;19;20527;-61
2023/07/17 19:09:45;;;;;;;1.55;0.90;;;;;;;22.54;47.44;98558.19;15279788;19;20014;-62
2023/07/17 19:15:11;;;;;;;2.38;1.00;;;;;;;22.45;47.89;98560.41;15277654;19;20011;-62
2023/07/17 19:20:39;;;;;;;1.55;0.77;;;;;;;22.32;48.32;98558.69;15272367;19;20010;-62
2023/07/17 19:26:02;;;;;;;1.50;0.85;;;;;;;22.17;49.02;98569.25;15254567;19;20011;-61
2023/07/17 19:31:28;;;;;;;2.33;0.77;;;;;;;21.98;49.67;98584.94;15277094;19;20007;-60
2023/07/17 19:36:56;;;;;;;1.00;0.90;;;;;;;21.92;49.47;98599.59;15305089;19;20014;-61
2023/07/17 19:42:22;;;;;;;0.93;0.70;;;;;;;21.85;49.66;98611.47;15303920;19;20141;-60
2023/07/17 19:47:46;;;;;;;6.22;1.08;;;;;;;21.85;49.93;98622.44;15295441;19;20104;-62
2023/07/17 19:53:14;;;;;;;2.15;0.80;;;;;;;21.85;50.63;98630.66;15289919;19;20010;-62
2023/07/17 19:58:38;;;;;;;1.17;0.60;;;;;;;21.77;51.71;98639.22;15303029;19;20022;-62
2023/07/17 20:04:03;;;;;;;2.72;0.90;;;;;;;21.66;51.90;98643.53;15297230;19;20020;-61
2023/07/17 20:09:33;;;;;;;4.35;0.90;;;;;;;21.57;52.53;98646.81;15301416;19;20102;-61
2023/07/17 20:14:58;;;;;;;1.90;0.90;;;;;;;21.47;53.16;98659.09;15298184;19;20021;-60
2023/07/17 20:20:24;;;;;;;3.20;1.00;;;;;;;21.37;53.76;98676.09;15298410;19;20014;-61
2023/07/17 20:25:52;;;;;;;1.17;0.93;;;;;;;21.23;54.97;98705.50;15290045;19;20014;-62
2023/07/17 20:31:17;;;;;;;4.97;1.10;;;;;;;20.16;70.86;98752.66;15299519;19;20017;-62
2023/07/17 20:36:42;;;;;;;7.72;1.15;;;;;;;19.25;91.57;98785.09;15303558;19;20050;-59
2023/07/17 20:42:10;;;;;;;8.27;0.90;;;;;;;18.96;99.93;98783.59;15297793;19;20018;-61
2023/07/17 20:47:41;;;;;;;5.57;0.80;;;;;;;18.55;100.00;98793.53;15287715;19;20014;-59
2023/07/17 20:53:06;;;;;;;3.50;0.88;;;;;;;18.33;100.00;98801.84;15285456;19;20455;-60
2023/07/17 20:58:34;;;;;;;2.70;0.77;;;;;;;18.02;100.00;98803.16;15281437;19;20029;-59
2023/07/17 21:04:01;;;;;;;2.35;0.68;;;;;;;17.81;100.00;98802.16;15279437;19;20017;-60
2023/07/17 21:09:25;;;;;;;3.08;0.82;;;;;;;17.76;100.00;98799.16;15286421;19;20013;-58
2023/07/17 21:14:53;;;;;;;2.58;0.80;;;;;;;17.66;100.00;98788.59;15282247;19;20078;-59
2023/07/17 21:20:19;;;;;;;0.77;0.60;;;;;;;17.50;100.00;98792.47;15284893;19;20035;-64
2023/07/17 21:25:51;;;;;;;1.98;0.90;;;;;;;17.46;100.00;98810.25;15278012;19;20032;-59
2023/07/17 21:31:20;;;;;;;1.40;0.80;;;;;;;17.36;100.00;98812.44;15277983;19;20029;-63
2023/07/17 21:36:47;;;;;;;1.55;0.75;;;;;;;17.32;100.00;98809.28;15284165;19;20019;-60
2023/07/17 21:42:12;;;;;;;3.15;0.68;;;;;;;17.33;100.00;98831.94;15279794;19;20011;-58
2023/07/17 21:47:46;;;;;;;4.40;0.75;;;;;;;17.30;100.00;98827.69;15282983;19;20014;-59
2023/07/17 21:53:14;;;;;;;2.85;0.70;;;;;;;17.37;100.00;98855.84;15278883;19;20038;-61
2023/07/17 21:58:39;;;;;;;2.35;0.60;;;;;;;17.30;100.00;98859.53;15281566;19;20017;-60
2023/07/17 22:04:07;;;;;;;1.48;0.65;;;;;;;17.28;100.00;98872.50;15273068;19;20022;-60
2023/07/17 22:09:31;;;;;;;0.70;0.70;;;;;;;17.20;100.00;98882.50;15280638;19;20007;-60
2023/07/17 22:15:02;;;;;;;1.77;0.70;;;;;;;17.17;100.00;98877.41;15279619;19;20185;-55
2023/07/17 22:20:30;;;;;;;1.05;0.60;;;;;;;17.08;100.00;98884.84;15281522;19;20476;-55
2023/07/17 22:25:55;;;;;;;0.77;0.70;;;;;;;17.00;100.00;98878.69;15276872;19;20032;-59
2023/07/17 22:31:20;;;;;;;1.05;0.65;;;;;;;16.84;100.00;98888.75;15279324;19;20053;-63
2023/07/17 22:36:47;;;;;;;2.17;0.70;;;;;;;16.69;100.00;98894.22;15278474;19;20016;-59
2023/07/17 22:42:12;;;;;;;1.65;0.70;;;;;;;16.57;100.00;98896.56;15277799;19;20014;-60
2023/07/17 22:47:43;;;;;;;1.25;0.80;;;;;;;16.45;100.00;98896.19;15287940;19;20035;-56
2023/07/17 22:53:11;;;;;;;1.40;0.80;;;;;;;16.34;100.00;98899.38;15276903;19;20015;-55
2023/07/17 22:58:36;;;;;;;2.00;0.90;;;;;;;16.11;100.00;98908.44;15281925;19;20021;-59
2023/07/17 23:04:00;;;;;;;1.00;0.80;;;;;;;15.83;100.00;98909.03;15273533;19;20028;-55
2023/07/17 23:09:27;;;;;;;1.75;0.80;;;;;;;15.64;100.00;98899.50;15272867;19;20006;-55
2023/07/17 23:14:54;;;;;;;0.80;0.70;;;;;;;15.50;100.00;98913.88;15273428;19;20475;-58
2023/07/17 23:20:19;;;;;;;1.80;0.80;;;;;;;15.37;100.00;98928.88;15276220;19;20014;-59
2023/07/17 23:25:47;;;;;;;1.35;0.80;;;;;;;15.22;100.00;98917.94;15273689;19;20031;-59
2023/07/17 23:31:13;;;;;;;0.70;0.70;;;;;;;15.10;100.00;98912.09;15276070;19;20467;-61
2023/07/17 23:36:39;;;;;;;1.25;0.90;;;;;;;14.91;100.00;98907.97;15273423;19;20014;-60
2023/07/17 23:42:06;;;;;;;1.38;1.00;;;;;;;14.83;100.00;98912.56;15272744;19;20022;-58
2023/07/17 23:47:38;;;;;;;2.35;0.90;;;;;;;14.78;100.00;98918.53;15273649;19;20677;-58
2023/07/17 23:53:02;;;;;;;1.92;1.00;;;;;;;14.82;100.00;98910.88;15276299;19;20018;-61
2023/07/17 23:58:30;;;;;;;4.03;0.93;;;;;;;14.82;100.00;98908.16;15271277;19;20115;-59
